Silver Hill, Maryland
Current Conditions -  °F | °C
As of 9:58 PM on Wednesday 22 Oct 2014 (Local Time) from KADW Reporting Station
Overcast Overcast  
Wind Chill: 54°   Ceiling: 3600
Heat Index: 54°   Visibility: 10mi
Dew Point: 46°   Wind: 18mph
Humidity: 73%   Direction: 320°NW
Pressure: 29.92"   Gusts: 24mph
Location:  38.8377°N, 76.9193°W
Report Text: KADW 230158Z AUTO 32016G21KT 10SM OVC036 12/08 A2992 RMK AO2 RAB0111E0120DZE0128 SLP139 P0000 T01240077 $
Loading
Personal Weather Stations






























Interactive Weather Map
Tropical Storm Tracking
New forecast layout! Learn more

10-Day Weather Forecast

Advertisements
Track Severe Weather on mobile